Leroy, Michigan
Current Conditions -  °F | °C
As of 1:55 AM on Tuesday 21 Oct 2014 (Local Time) from KCAD Reporting Station
Overcast Overcast  
Wind Chill: 39°   Ceiling: 700
Heat Index: 44°   Visibility: 10mi
Dew Point: 43°   Wind: 9mph
Humidity: 97%   Direction: 330°NNW
Pressure: 29.93"   Gusts: NA
Location:  44.03°N, 85.44°W
Report Text: KCAD 210555Z AUTO 33008KT 10SM OVC007 06/06 A2993 RMK AO2 T00650060
Loading
Personal Weather Stations






























Interactive Weather Map
Tropical Storm Tracking
New forecast layout! Learn more

10-Day Weather Forecast

Advertisements
Track Severe Weather on mobile